createdAt,value
2022-08-26T00:01:56.789Z,6.43
2022-08-26T00:04:25.845Z,6.15
2022-08-26T00:06:54.991Z,12.82
2022-08-26T00:09:25.318Z,6.77
2022-08-26T00:11:54.390Z,8.00
2022-08-26T00:14:26.030Z,8.90
2022-08-26T00:16:57.396Z,7.13
2022-08-26T00:19:25.293Z,7.28
2022-08-26T00:21:52.997Z,6.60
2022-08-26T00:24:21.843Z,7.78
2022-08-26T00:26:51.576Z,8.73
2022-08-26T00:29:19.854Z,6.75
2022-08-26T00:31:49.205Z,13.88
2022-08-26T00:34:19.539Z,9.80
2022-08-26T00:36:49.350Z,6.68
2022-08-26T00:39:20.427Z,7.20
2022-08-26T00:41:48.520Z,5.95
2022-08-26T00:44:16.675Z,7.43
2022-08-26T00:46:49.157Z,8.63
2022-08-26T00:49:24.562Z,8.48
2022-08-26T00:51:58.967Z,7.07
2022-08-26T00:54:33.263Z,9.15
2022-08-26T00:57:16.004Z,9.65
2022-08-26T00:59:56.757Z,7.73
2022-08-26T01:02:25.459Z,8.23
2022-08-26T01:04:59.290Z,7.03
2022-08-26T01:07:30.070Z,6.53
2022-08-26T01:10:00.361Z,9.95
2022-08-26T01:12:32.136Z,7.77
2022-08-26T01:15:01.618Z,11.93
2022-08-26T01:17:29.253Z,6.85
2022-08-26T01:20:04.462Z,6.75
2022-08-26T01:23:01.637Z,5.55
2022-08-26T01:25:34.223Z,12.33
2022-08-26T01:28:06.425Z,7.60
2022-08-26T01:30:37.638Z,5.93
2022-08-26T01:33:10.784Z,7.53
2022-08-26T01:35:39.650Z,6.93
2022-08-26T01:38:07.640Z,7.27
2022-08-26T01:40:37.720Z,10.70
2022-08-26T01:43:08.556Z,5.97
2022-08-26T01:45:40.545Z,7.38
2022-08-26T01:48:13.990Z,9.18
2022-08-26T01:50:45.131Z,7.10
2022-08-26T01:53:17.159Z,9.93
2022-08-26T01:55:48.101Z,6.32
2022-08-26T01:58:39.151Z,8.70
2022-08-26T02:01:07.166Z,6.32
2022-08-26T02:03:50.980Z,6.50
2022-08-26T02:06:19.814Z,8.02
2022-08-26T02:08:52.697Z,7.88
2022-08-26T02:11:21.239Z,8.77
2022-08-26T02:14:02.952Z,8.25
2022-08-26T02:16:42.304Z,6.23
2022-08-26T02:19:29.456Z,9.02
2022-08-26T02:21:59.591Z,6.97
2022-08-26T02:24:45.878Z,8.07
2022-08-26T02:27:16.000Z,5.70
2022-08-26T02:29:51.397Z,10.57
2022-08-26T02:32:19.778Z,7.50
2022-08-26T02:34:47.277Z,7.53
2022-08-26T02:37:15.367Z,8.43
2022-08-26T02:39:45.556Z,7.75
2022-08-26T02:42:15.648Z,9.27
2022-08-26T02:44:43.107Z,6.97
2022-08-26T02:47:13.911Z,6.78
2022-08-26T02:49:47.458Z,6.18
2022-08-26T02:52:15.377Z,8.23
2022-08-26T02:54:43.341Z,6.73
2022-08-26T02:57:13.047Z,9.02
2022-08-26T02:59:41.082Z,11.43
2022-08-26T03:02:10.760Z,10.55
2022-08-26T03:04:39.267Z,12.35
2022-08-26T03:07:07.197Z,9.00
2022-08-26T03:09:34.839Z,9.05
2022-08-26T03:12:02.943Z,8.30
2022-08-26T03:14:30.493Z,9.07
2022-08-26T03:16:58.103Z,7.88
2022-08-26T03:19:26.431Z,8.50
2022-08-26T03:21:57.938Z,7.90
2022-08-26T03:24:26.964Z,9.32
2022-08-26T03:26:54.541Z,8.25
2022-08-26T03:29:41.568Z,7.30
2022-08-26T03:32:10.593Z,8.37
2022-08-26T03:34:38.646Z,7.88
2022-08-26T03:37:06.260Z,6.88
2022-08-26T03:39:34.116Z,6.03
2022-08-26T03:42:01.790Z,7.10
2022-08-26T03:44:29.885Z,5.93
2022-08-26T03:46:58.013Z,6.55
2022-08-26T03:49:26.323Z,5.50
2022-08-26T03:51:56.600Z,8.02
2022-08-26T03:54:24.381Z,6.10
2022-08-26T03:56:51.920Z,10.40
2022-08-26T03:59:19.638Z,7.13
2022-08-26T04:01:47.350Z,7.30
2022-08-26T04:04:17.155Z,9.10
2022-08-26T04:06:44.969Z,12.30
2022-08-26T04:09:20.790Z,7.20
2022-08-26T04:11:50.712Z,7.43
2022-08-26T04:14:23.802Z,6.35
2022-08-26T04:16:53.435Z,9.48
2022-08-26T04:19:24.411Z,8.13
2022-08-26T04:21:53.284Z,8.53
2022-08-26T04:24:23.674Z,5.43
2022-08-26T04:26:51.597Z,6.35
2022-08-26T04:29:24.176Z,10.55
2022-08-26T04:31:55.575Z,7.05
2022-08-26T04:34:28.963Z,8.23
2022-08-26T04:36:58.081Z,9.60
2022-08-26T04:39:27.663Z,9.20
2022-08-26T04:41:55.968Z,7.95
2022-08-26T04:44:28.491Z,9.38
2022-08-26T04:46:57.529Z,8.17
2022-08-26T04:49:26.158Z,6.95
2022-08-26T04:51:55.188Z,8.10
2022-08-26T04:54:23.469Z,9.00
2022-08-26T04:56:52.855Z,7.70
2022-08-26T04:59:20.389Z,10.07
2022-08-26T05:01:51.867Z,8.85
2022-08-26T05:04:20.594Z,7.18
2022-08-26T05:06:49.362Z,8.27
2022-08-26T05:09:18.721Z,8.30
2022-08-26T05:11:48.599Z,9.80
2022-08-26T05:14:23.433Z,6.25
2022-08-26T05:16:51.913Z,11.32
2022-08-26T05:19:19.806Z,11.90
2022-08-26T05:21:49.429Z,9.50
2022-08-26T05:24:17.902Z,8.47
2022-08-26T05:26:47.272Z,8.18
2022-08-26T05:29:16.777Z,11.45
2022-08-26T05:31:44.575Z,11.60
2022-08-26T05:34:12.833Z,9.57
2022-08-26T05:36:40.363Z,9.33
2022-08-26T05:39:10.355Z,11.07
2022-08-26T05:41:41.103Z,11.20
2022-08-26T05:44:12.791Z,11.93
2022-08-26T05:46:42.510Z,10.98
2022-08-26T05:49:13.754Z,14.87
2022-08-26T05:51:45.569Z,13.02
2022-08-26T05:54:14.194Z,11.57
2022-08-26T05:56:49.373Z,7.53
2022-08-26T05:59:21.245Z,10.68
2022-08-26T06:01:54.983Z,8.80
2022-08-26T06:04:27.684Z,10.27
2022-08-26T06:06:58.271Z,14.27
2022-08-26T06:09:26.985Z,11.63
2022-08-26T06:11:55.979Z,12.40
2022-08-26T06:14:23.600Z,11.57
2022-08-26T06:16:51.144Z,12.48
2022-08-26T06:19:19.328Z,11.95
2022-08-26T06:21:51.381Z,11.07
2022-08-26T06:24:40.816Z,11.15
2022-08-26T06:27:13.775Z,8.90
2022-08-26T06:29:41.937Z,10.93
2022-08-26T06:32:09.597Z,9.27
2022-08-26T06:34:37.359Z,8.98
2022-08-26T06:37:06.497Z,13.55
2022-08-26T06:39:34.693Z,10.93
2022-08-26T06:42:06.118Z,11.75
2022-08-26T06:44:34.846Z,8.40
2022-08-26T06:47:02.442Z,10.38
2022-08-26T06:49:30.159Z,19.10
2022-08-26T06:51:58.721Z,10.40
2022-08-26T06:54:32.032Z,9.40
2022-08-26T06:57:01.190Z,8.65
2022-08-26T06:59:28.697Z,11.38
2022-08-26T07:01:57.010Z,9.82
2022-08-26T07:04:25.083Z,10.17
2022-08-26T07:06:56.042Z,13.13
2022-08-26T07:09:27.312Z,12.38
2022-08-26T07:11:58.677Z,10.15
2022-08-26T07:14:26.545Z,8.38
2022-08-26T07:16:54.845Z,9.30
2022-08-26T07:19:29.860Z,9.77
2022-08-26T07:22:02.258Z,13.45
2022-08-26T07:24:36.421Z,9.20
2022-08-26T07:27:07.374Z,10.27
2022-08-26T07:29:38.037Z,11.53
2022-08-26T07:32:06.751Z,7.75
2022-08-26T07:34:34.467Z,9.40
2022-08-26T07:37:02.444Z,9.63
2022-08-26T07:39:31.641Z,9.93
2022-08-26T07:42:03.846Z,9.00
2022-08-26T07:44:37.169Z,11.07
2022-08-26T07:47:24.269Z,9.13
2022-08-26T07:49:55.863Z,10.90
2022-08-26T07:52:26.891Z,9.90
2022-08-26T07:55:00.123Z,11.37
2022-08-26T07:57:28.965Z,16.52
2022-08-26T07:59:57.097Z,8.02
2022-08-26T08:02:25.844Z,12.73
2022-08-26T08:04:54.677Z,10.27
2022-08-26T08:07:38.674Z,9.30
2022-08-26T08:10:13.904Z,9.68
2022-08-26T08:12:42.131Z,13.02
2022-08-26T08:15:13.838Z,10.23
2022-08-26T08:17:43.615Z,11.57
2022-08-26T08:20:12.291Z,7.90
2022-08-26T08:22:40.159Z,9.20
2022-08-26T08:25:10.667Z,8.85
2022-08-26T08:27:40.445Z,8.23
2022-08-26T08:30:09.444Z,13.88
2022-08-26T08:32:43.768Z,8.33
2022-08-26T08:35:14.239Z,9.52
2022-08-26T08:37:42.630Z,11.20
2022-08-26T08:40:15.798Z,9.40
2022-08-26T08:43:05.196Z,7.63
2022-08-26T08:45:37.210Z,9.50
2022-08-26T08:48:29.311Z,12.18
2022-08-26T08:51:22.207Z,8.38
2022-08-26T08:53:54.596Z,10.65
2022-08-26T08:56:39.635Z,8.02
2022-08-26T08:59:21.687Z,20.03
2022-08-26T09:01:54.096Z,8.18
2022-08-26T09:04:49.153Z,10.00
2022-08-26T09:07:36.847Z,6.50
2022-08-26T09:10:29.190Z,7.28
2022-08-26T09:12:57.889Z,10.07
2022-08-26T09:15:50.778Z,6.82
2022-08-26T09:18:27.401Z,8.18
2022-08-26T09:21:14.075Z,6.32
2022-08-26T09:23:44.116Z,9.60
2022-08-26T09:26:39.364Z,8.37
2022-08-26T09:31:49.393Z,6.82
2022-08-26T09:34:19.107Z,7.70
2022-08-26T09:36:54.218Z,9.32
2022-08-26T09:39:33.227Z,8.43
2022-08-26T09:42:19.412Z,9.43
2022-08-26T09:44:56.606Z,10.05
2022-08-26T09:47:30.344Z,8.82
2022-08-26T09:50:11.007Z,8.48
2022-08-26T09:52:42.601Z,8.30
2022-08-26T09:55:12.568Z,7.53
2022-08-26T09:57:54.121Z,8.82
2022-08-26T10:00:43.867Z,7.18
2022-08-26T10:03:23.717Z,8.75
2022-08-26T10:06:07.179Z,10.10
2022-08-26T10:08:39.401Z,10.80
2022-08-26T10:11:41.912Z,9.15
2022-08-26T10:14:29.748Z,7.90
2022-08-26T10:17:03.988Z,10.88
2022-08-26T10:19:56.814Z,10.70
2022-08-26T10:22:48.325Z,7.38
2022-08-26T10:25:23.485Z,10.48
2022-08-26T10:28:12.448Z,13.55
2022-08-26T10:30:47.038Z,13.52
2022-08-26T10:33:15.603Z,9.80
2022-08-26T10:36:28.558Z,12.15
2022-08-26T10:38:59.362Z,11.35
2022-08-26T10:41:35.144Z,12.13
2022-08-26T10:44:08.400Z,12.98
2022-08-26T10:46:53.526Z,8.73
2022-08-26T10:49:21.084Z,8.23
2022-08-26T10:52:12.291Z,13.52
2022-08-26T10:54:53.547Z,12.02
2022-08-26T10:57:46.723Z,10.82
2022-08-26T11:00:40.733Z,10.33
2022-08-26T11:03:41.481Z,11.30
2022-08-26T11:06:29.292Z,14.38
2022-08-26T11:09:08.806Z,13.27
2022-08-26T11:11:42.476Z,11.68
2022-08-26T11:14:23.458Z,11.67
2022-08-26T11:16:57.691Z,9.68
2022-08-26T11:20:00.707Z,9.40
2022-08-26T11:22:34.918Z,8.95
2022-08-26T11:25:14.458Z,17.77
2022-08-26T11:27:41.912Z,9.27
2022-08-26T11:30:35.299Z,11.85
2022-08-26T11:33:02.888Z,11.15
2022-08-26T11:35:37.414Z,8.95
2022-08-26T11:38:18.422Z,9.50
2022-08-26T11:41:05.035Z,11.70
2022-08-26T11:43:36.235Z,8.70
2022-08-26T11:46:07.218Z,8.70
2022-08-26T11:48:42.004Z,7.30
2022-08-26T11:51:22.687Z,5.72
2022-08-26T11:53:51.301Z,8.87
2022-08-26T11:56:32.697Z,6.15
2022-08-26T11:59:04.285Z,8.15
2022-08-26T12:01:56.402Z,7.05
2022-08-26T12:04:38.415Z,8.18
2022-08-26T12:07:09.809Z,8.90
2022-08-26T12:09:53.542Z,6.18
2022-08-26T12:12:35.199Z,5.82
2022-08-26T12:15:22.614Z,7.35
2022-08-26T12:17:54.449Z,7.47
2022-08-26T12:20:31.511Z,6.40
2022-08-26T12:23:01.646Z,6.40
2022-08-26T12:25:36.254Z,6.30
2022-08-26T12:28:06.494Z,6.95
2022-08-26T12:30:34.501Z,4.47
2022-08-26T12:33:22.833Z,5.40
2022-08-26T12:35:56.271Z,4.93
2022-08-26T12:38:27.862Z,4.72
2022-08-26T12:40:57.354Z,5.00
2022-08-26T12:43:48.616Z,4.45
2022-08-26T12:46:19.826Z,5.13
2022-08-26T12:48:50.023Z,5.35
2022-08-26T12:51:26.783Z,5.45
2022-08-26T12:53:55.280Z,4.15
2022-08-26T12:56:41.743Z,4.05
2022-08-26T12:59:27.869Z,6.50
2022-08-26T13:01:55.702Z,4.88
2022-08-26T13:04:40.483Z,4.05
2022-08-26T13:07:15.626Z,4.32
2022-08-26T13:09:47.214Z,3.10
2022-08-26T13:12:35.298Z,3.77
2022-08-26T13:15:07.485Z,3.40
2022-08-26T13:17:36.310Z,3.03
2022-08-26T13:20:04.904Z,2.42
2022-08-26T13:22:33.715Z,2.33
2022-08-26T13:25:07.036Z,2.40
2022-08-26T13:27:36.501Z,2.08
2022-08-26T13:30:06.933Z,3.10
2022-08-26T13:32:35.925Z,2.55
2022-08-26T13:35:06.057Z,6.50
2022-08-26T13:37:35.178Z,3.33
2022-08-26T13:40:11.871Z,3.75
2022-08-26T13:42:49.660Z,3.42
2022-08-26T13:45:22.902Z,2.65
2022-08-26T13:47:50.618Z,3.95
2022-08-26T13:50:18.281Z,2.90
2022-08-26T13:52:46.443Z,2.67
2022-08-26T13:55:14.093Z,4.00
2022-08-26T13:57:41.834Z,3.72
2022-08-26T14:00:10.984Z,2.53
2022-08-26T14:02:39.066Z,2.40
2022-08-26T14:05:07.275Z,2.90
2022-08-26T14:07:35.127Z,3.72
2022-08-26T14:10:04.609Z,2.85
2022-08-26T14:12:32.740Z,4.00
2022-08-26T14:15:00.617Z,3.07
2022-08-26T14:17:30.773Z,5.85
2022-08-26T14:19:58.893Z,4.45
2022-08-26T14:22:26.569Z,4.15
2022-08-26T14:24:54.465Z,3.67
2022-08-26T14:27:22.996Z,3.30
2022-08-26T14:29:50.734Z,5.63
2022-08-26T14:32:26.305Z,4.55
2022-08-26T14:34:55.899Z,4.32
2022-08-26T14:37:24.309Z,4.32
2022-08-26T14:39:52.600Z,8.13
2022-08-26T14:42:33.094Z,5.97
2022-08-26T14:45:05.378Z,7.28
2022-08-26T14:47:33.245Z,5.95
2022-08-26T14:50:01.329Z,6.43
2022-08-26T14:52:50.383Z,4.47
2022-08-26T14:55:18.298Z,5.93
2022-08-26T14:57:46.291Z,6.10
2022-08-26T15:00:14.253Z,7.25
2022-08-26T15:02:42.615Z,5.70
2022-08-26T15:05:11.196Z,4.80
2022-08-26T15:07:39.847Z,5.93
2022-08-26T15:10:11.535Z,5.70
2022-08-26T15:12:40.719Z,7.72
2022-08-26T15:15:10.802Z,4.85
2022-08-26T15:17:39.035Z,6.27
2022-08-26T15:20:09.781Z,4.32
2022-08-26T15:22:39.279Z,6.55
2022-08-26T15:25:09.132Z,5.85
2022-08-26T15:30:20.299Z,7.47
2022-08-26T15:32:48.102Z,6.38
2022-08-26T15:35:16.557Z,4.95
2022-08-26T15:37:44.508Z,4.70
2022-08-26T15:40:15.240Z,5.28
2022-08-26T15:42:43.175Z,8.60
2022-08-26T15:45:12.563Z,5.72
2022-08-26T15:48:11.148Z,6.78
2022-08-26T15:50:51.555Z,8.77
2022-08-26T15:53:22.128Z,8.98
2022-08-26T15:55:53.031Z,8.77
2022-08-26T15:58:21.724Z,10.20
2022-08-26T16:00:49.304Z,5.60
2022-08-26T16:03:17.102Z,9.30
2022-08-26T16:05:45.611Z,7.47
2022-08-26T16:08:14.388Z,5.27
2022-08-26T16:10:50.440Z,5.68
2022-08-26T16:13:20.034Z,6.45
2022-08-26T16:15:49.027Z,6.60
2022-08-26T16:18:17.021Z,8.13
2022-08-26T16:21:12.920Z,6.70
2022-08-26T16:23:38.533Z,6.38
2022-08-26T16:26:11.023Z,7.53
2022-08-26T16:28:39.110Z,5.75
2022-08-26T16:31:07.532Z,7.07
2022-08-26T16:33:35.113Z,7.97
2022-08-26T16:36:02.860Z,7.30
2022-08-26T16:38:30.633Z,6.22
2022-08-26T16:40:59.298Z,8.85
2022-08-26T16:43:27.506Z,7.43
2022-08-26T16:45:55.150Z,7.47
2022-08-26T16:48:23.696Z,5.18
2022-08-26T16:50:51.970Z,6.90
2022-08-26T16:53:19.545Z,8.30
2022-08-26T16:55:48.461Z,4.75
2022-08-26T16:58:17.051Z,4.67
2022-08-26T17:00:45.383Z,3.83
2022-08-26T17:03:13.158Z,3.75
2022-08-26T17:05:40.823Z,3.80
2022-08-26T17:08:08.736Z,2.13
2022-08-26T17:10:36.545Z,1.70
2022-08-26T17:13:04.291Z,2.03
2022-08-26T17:15:32.437Z,1.70
2022-08-26T17:18:00.505Z,2.20
2022-08-26T17:20:28.407Z,1.45
2022-08-26T17:22:56.379Z,2.37
2022-08-26T17:25:30.200Z,1.48
2022-08-26T17:27:58.528Z,1.23
2022-08-26T17:30:26.371Z,0.90
2022-08-26T17:32:54.856Z,1.48
2022-08-26T17:35:23.166Z,1.23
2022-08-26T17:37:51.293Z,1.95
2022-08-26T17:40:22.756Z,1.48
2022-08-26T17:42:50.780Z,1.75
2022-08-26T17:47:53.748Z,1.63
2022-08-26T17:50:21.566Z,2.17
2022-08-26T17:52:49.424Z,1.52
2022-08-26T17:55:18.236Z,1.15
2022-08-26T17:57:53.153Z,2.58
2022-08-26T18:00:23.633Z,1.70
2022-08-26T18:02:51.171Z,3.15
2022-08-26T18:05:19.107Z,2.20
2022-08-26T18:07:48.441Z,1.60
2022-08-26T18:10:18.787Z,1.92
2022-08-26T18:12:47.018Z,1.40
2022-08-26T18:15:16.640Z,2.67
2022-08-26T18:17:44.512Z,2.45
2022-08-26T18:20:16.927Z,2.40
2022-08-26T18:22:46.074Z,2.28
2022-08-26T18:25:15.243Z,2.07
2022-08-26T18:27:43.362Z,2.45
2022-08-26T18:30:16.738Z,2.63
2022-08-26T18:32:44.586Z,3.75
2022-08-26T18:35:12.507Z,3.95
2022-08-26T18:37:40.754Z,2.90
2022-08-26T18:40:10.992Z,4.40
2022-08-26T18:42:39.470Z,2.20
2022-08-26T18:45:08.669Z,2.50
2022-08-26T18:47:36.718Z,4.95
2022-08-26T18:50:05.820Z,4.67
2022-08-26T18:52:33.418Z,2.80
2022-08-26T18:55:02.300Z,4.28
2022-08-26T18:57:29.947Z,3.25
2022-08-26T18:59:57.761Z,3.00
2022-08-26T19:02:25.448Z,3.20
2022-08-26T19:04:53.273Z,2.88
2022-08-26T19:07:20.919Z,3.80
2022-08-26T19:09:48.479Z,5.25
2022-08-26T19:12:22.068Z,2.95
2022-08-26T19:14:49.676Z,4.80
2022-08-26T19:17:17.582Z,3.25
2022-08-26T19:19:50.317Z,5.22
2022-08-26T19:22:19.863Z,3.88
2022-08-26T19:24:47.463Z,4.57
2022-08-26T19:27:15.521Z,4.27
2022-08-26T19:29:43.102Z,4.35
2022-08-26T19:32:10.745Z,4.70
2022-08-26T19:34:38.365Z,5.38
2022-08-26T19:37:05.982Z,4.22
2022-08-26T19:39:33.576Z,4.97
2022-08-26T19:42:01.130Z,3.55
2022-08-26T19:44:47.167Z,3.58
2022-08-26T19:47:15.288Z,3.70
2022-08-26T19:49:42.891Z,3.88
2022-08-26T19:52:11.543Z,4.50
2022-08-26T19:54:39.796Z,3.83
2022-08-26T19:57:07.534Z,5.80
2022-08-26T19:59:36.319Z,5.25
2022-08-26T20:02:09.999Z,3.75
2022-08-26T20:04:39.030Z,5.47
2022-08-26T20:07:06.566Z,5.65
2022-08-26T20:09:35.232Z,3.70
2022-08-26T20:12:06.069Z,4.43
2022-08-26T20:14:35.191Z,4.47
2022-08-26T20:17:04.277Z,4.93
2022-08-26T20:19:50.478Z,5.72
2022-08-26T20:22:19.480Z,5.43
2022-08-26T20:24:47.550Z,5.20
2022-08-26T20:27:15.913Z,5.68
2022-08-26T20:29:43.544Z,4.93
2022-08-26T20:32:12.141Z,5.85
2022-08-26T20:34:40.120Z,6.65
2022-08-26T20:37:08.613Z,5.75
2022-08-26T20:39:36.417Z,3.70
2022-08-26T20:42:04.528Z,5.93
2022-08-26T20:44:33.604Z,5.18
2022-08-26T20:47:01.418Z,6.63
2022-08-26T20:49:30.446Z,6.70
2022-08-26T20:52:01.342Z,7.30
2022-08-26T20:54:30.069Z,5.00
2022-08-26T20:56:58.848Z,7.40
2022-08-26T20:59:27.178Z,6.93
2022-08-26T21:01:55.950Z,5.95
2022-08-26T21:04:26.181Z,7.53
2022-08-26T21:06:54.858Z,4.33
2022-08-26T21:09:24.747Z,7.93
2022-08-26T21:11:53.203Z,4.03
2022-08-26T21:14:25.747Z,6.28
2022-08-26T21:16:53.867Z,6.30
2022-08-26T21:19:21.835Z,5.13
2022-08-26T21:21:49.478Z,6.90
2022-08-26T21:24:17.822Z,4.70
2022-08-26T21:26:45.880Z,7.32
2022-08-26T21:29:13.867Z,4.63
2022-08-26T21:31:46.072Z,5.50
2022-08-26T21:34:16.926Z,6.78
2022-08-26T21:36:48.968Z,4.45
2022-08-26T21:39:17.106Z,7.38
2022-08-26T21:41:45.753Z,7.20
2022-08-26T21:44:15.596Z,6.20
2022-08-26T21:46:44.755Z,5.97
2022-08-26T21:49:15.884Z,5.85
2022-08-26T21:51:46.274Z,6.32
2022-08-26T21:54:15.064Z,5.50
2022-08-26T21:56:46.240Z,5.40
2022-08-26T21:59:16.980Z,5.22
2022-08-26T22:01:44.732Z,4.72
2022-08-26T22:04:12.333Z,7.15
2022-08-26T22:06:49.046Z,5.57
2022-08-26T22:09:28.031Z,5.47
2022-08-26T22:11:57.372Z,4.10
2022-08-26T22:14:30.358Z,6.15
2022-08-26T22:16:59.648Z,6.70
2022-08-26T22:19:27.360Z,9.38
2022-08-26T22:21:56.112Z,5.90
2022-08-26T22:24:26.060Z,4.85
2022-08-26T22:26:54.781Z,7.20
2022-08-26T22:29:22.535Z,5.53
2022-08-26T22:31:50.409Z,7.43
2022-08-26T22:34:19.626Z,5.60
2022-08-26T22:36:48.947Z,7.70
2022-08-26T22:39:21.067Z,5.65
2022-08-26T22:41:49.146Z,7.07
2022-08-26T22:44:18.514Z,5.60
2022-08-26T22:46:47.334Z,7.80
2022-08-26T22:49:19.714Z,5.85
2022-08-26T22:51:47.446Z,5.13
2022-08-26T22:54:15.747Z,7.22
2022-08-26T22:56:45.107Z,6.70
2022-08-26T22:59:13.258Z,5.57
2022-08-26T23:01:43.587Z,4.45
2022-08-26T23:04:11.806Z,5.90
2022-08-26T23:06:43.350Z,4.55
2022-08-26T23:09:18.414Z,5.00
2022-08-26T23:11:47.885Z,4.80
2022-08-26T23:14:17.078Z,4.50
2022-08-26T23:16:44.952Z,5.57
2022-08-26T23:19:14.722Z,7.03
2022-08-26T23:21:42.439Z,7.20
2022-08-26T23:24:11.296Z,5.80
2022-08-26T23:26:40.187Z,5.07
2022-08-26T23:29:09.903Z,6.00
2022-08-26T23:31:40.154Z,6.10
2022-08-26T23:34:26.814Z,6.13
2022-08-26T23:36:58.438Z,5.57
2022-08-26T23:39:26.693Z,6.43
2022-08-26T23:41:54.314Z,7.00
2022-08-26T23:44:22.499Z,5.32
2022-08-26T23:46:50.430Z,9.45
2022-08-26T23:49:18.080Z,6.20
2022-08-26T23:52:04.488Z,7.65
2022-08-26T23:54:33.097Z,7.03
2022-08-26T23:57:00.729Z,4.75
2022-08-26T23:59:28.434Z,7.38
